sensor_id;sensor_type;location;lat;lon;timestamp;temperature;humidity
13310;DHT22;6723;48.256;16.402;2023-04-03T00:01:38;6.30;99.90
13310;DHT22;6723;48.256;16.402;2023-04-03T00:04:05;6.30;99.90
13310;DHT22;6723;48.256;16.402;2023-04-03T00:06:31;6.30;99.90
13310;DHT22;6723;48.256;16.402;2023-04-03T00:08:57;6.30;99.90
13310;DHT22;6723;48.256;16.402;2023-04-03T00:11:23;6.30;99.90
13310;DHT22;6723;48.256;16.402;2023-04-03T00:13:50;6.30;99.90
13310;DHT22;6723;48.256;16.402;2023-04-03T00:16:16;6.30;99.90
13310;DHT22;6723;48.256;16.402;2023-04-03T00:18:42;6.30;99.90
13310;DHT22;6723;48.256;16.402;2023-04-03T00:21:10;6.20;99.90
13310;DHT22;6723;48.256;16.402;2023-04-03T00:23:37;6.20;99.90
13310;DHT22;6723;48.256;16.402;2023-04-03T00:26:03;6.30;99.90
13310;DHT22;6723;48.256;16.402;2023-04-03T00:28:29;6.20;99.90
13310;DHT22;6723;48.256;16.402;2023-04-03T00:30:54;6.20;99.90
13310;DHT22;6723;48.256;16.402;2023-04-03T00:33:20;6.20;99.90
13310;DHT22;6723;48.256;16.402;2023-04-03T00:35:47;6.20;99.90
13310;DHT22;6723;48.256;16.402;2023-04-03T00:38:14;6.20;99.90
13310;DHT22;6723;48.256;16.402;2023-04-03T00:40:46;6.20;99.90
13310;DHT22;6723;48.256;16.402;2023-04-03T00:43:21;6.20;99.90
13310;DHT22;6723;48.256;16.402;2023-04-03T00:45:52;6.20;99.90
13310;DHT22;6723;48.256;16.402;2023-04-03T00:49:03;6.20;99.90
13310;DHT22;6723;48.256;16.402;2023-04-03T00:51:17;6.20;99.90
13310;DHT22;6723;48.256;16.402;2023-04-03T00:54:05;6.20;99.90
13310;DHT22;6723;48.256;16.402;2023-04-03T00:56:32;6.20;99.90
13310;DHT22;6723;48.256;16.402;2023-04-03T00:59:02;6.20;99.90
13310;DHT22;6723;48.256;16.402;2023-04-03T01:01:29;6.20;99.90
13310;DHT22;6723;48.256;16.402;2023-04-03T01:03:56;6.20;99.90
13310;DHT22;6723;48.256;16.402;2023-04-03T01:06:27;6.20;99.90
13310;DHT22;6723;48.256;16.402;2023-04-03T01:08:54;6.20;99.90
13310;DHT22;6723;48.256;16.402;2023-04-03T01:11:21;6.20;99.90
13310;DHT22;6723;48.256;16.402;2023-04-03T01:13:47;6.20;99.90
13310;DHT22;6723;48.256;16.402;2023-04-03T01:16:13;6.20;99.90
13310;DHT22;6723;48.256;16.402;2023-04-03T01:18:39;6.20;99.90
13310;DHT22;6723;48.256;16.402;2023-04-03T01:24:02;6.20;99.90
13310;DHT22;6723;48.256;16.402;2023-04-03T01:26:28;6.20;99.90
13310;DHT22;6723;48.256;16.402;2023-04-03T01:28:55;6.30;99.90
13310;DHT22;6723;48.256;16.402;2023-04-03T01:31:45;6.30;99.90
13310;DHT22;6723;48.256;16.402;2023-04-03T01:34:11;6.30;99.90
13310;DHT22;6723;48.256;16.402;2023-04-03T01:36:36;6.20;99.90
13310;DHT22;6723;48.256;16.402;2023-04-03T01:39:02;6.20;99.90
13310;DHT22;6723;48.256;16.402;2023-04-03T01:41:29;6.20;99.90
13310;DHT22;6723;48.256;16.402;2023-04-03T01:43:55;6.20;99.90
13310;DHT22;6723;48.256;16.402;2023-04-03T01:46:21;6.20;99.90
13310;DHT22;6723;48.256;16.402;2023-04-03T01:48:48;6.20;99.90
13310;DHT22;6723;48.256;16.402;2023-04-03T01:51:14;6.10;99.90
13310;DHT22;6723;48.256;16.402;2023-04-03T01:53:40;6.10;99.90
13310;DHT22;6723;48.256;16.402;2023-04-03T01:56:06;6.20;99.90
13310;DHT22;6723;48.256;16.402;2023-04-03T01:58:32;6.20;99.90
13310;DHT22;6723;48.256;16.402;2023-04-03T02:00:58;6.20;99.90
13310;DHT22;6723;48.256;16.402;2023-04-03T02:03:24;6.10;99.90
13310;DHT22;6723;48.256;16.402;2023-04-03T02:05:50;6.00;99.90
13310;DHT22;6723;48.256;16.402;2023-04-03T02:08:16;6.10;99.90
13310;DHT22;6723;48.256;16.402;2023-04-03T02:10:47;6.10;99.90
13310;DHT22;6723;48.256;16.402;2023-04-03T02:13:14;6.10;99.90
13310;DHT22;6723;48.256;16.402;2023-04-03T02:15:40;6.10;99.90
13310;DHT22;6723;48.256;16.402;2023-04-03T02:18:07;6.10;99.90
13310;DHT22;6723;48.256;16.402;2023-04-03T02:20:33;6.20;99.90
13310;DHT22;6723;48.256;16.402;2023-04-03T02:22:59;6.20;99.90
13310;DHT22;6723;48.256;16.402;2023-04-03T02:25:26;6.10;99.90
13310;DHT22;6723;48.256;16.402;2023-04-03T02:27:52;6.10;99.90
13310;DHT22;6723;48.256;16.402;2023-04-03T02:30:18;6.10;99.90
13310;DHT22;6723;48.256;16.402;2023-04-03T02:32:44;6.10;99.90
13310;DHT22;6723;48.256;16.402;2023-04-03T02:35:11;6.10;99.90
13310;DHT22;6723;48.256;16.402;2023-04-03T02:37:37;6.00;99.90
13310;DHT22;6723;48.256;16.402;2023-04-03T02:40:05;6.00;99.90
13310;DHT22;6723;48.256;16.402;2023-04-03T02:42:31;6.00;99.90
13310;DHT22;6723;48.256;16.402;2023-04-03T02:44:58;6.00;99.90
13310;DHT22;6723;48.256;16.402;2023-04-03T02:47:27;6.00;99.90
13310;DHT22;6723;48.256;16.402;2023-04-03T02:49:53;6.00;99.90
13310;DHT22;6723;48.256;16.402;2023-04-03T02:52:19;6.00;99.90
13310;DHT22;6723;48.256;16.402;2023-04-03T02:54:45;6.00;99.90
13310;DHT22;6723;48.256;16.402;2023-04-03T02:57:14;6.00;99.90
13310;DHT22;6723;48.256;16.402;2023-04-03T02:59:40;6.00;99.90
13310;DHT22;6723;48.256;16.402;2023-04-03T03:02:07;6.00;99.90
13310;DHT22;6723;48.256;16.402;2023-04-03T03:04:33;6.10;99.90
13310;DHT22;6723;48.256;16.402;2023-04-03T03:06:59;6.00;99.90
13310;DHT22;6723;48.256;16.402;2023-04-03T03:09:28;6.00;99.90
13310;DHT22;6723;48.256;16.402;2023-04-03T03:11:55;6.00;99.90
13310;DHT22;6723;48.256;16.402;2023-04-03T03:14:22;6.00;99.90
13310;DHT22;6723;48.256;16.402;2023-04-03T03:16:48;6.00;99.90
13310;DHT22;6723;48.256;16.402;2023-04-03T03:19:14;6.00;99.90
13310;DHT22;6723;48.256;16.402;2023-04-03T03:21:40;6.00;99.90
13310;DHT22;6723;48.256;16.402;2023-04-03T03:24:06;6.00;99.90
13310;DHT22;6723;48.256;16.402;2023-04-03T03:26:33;6.00;99.90
13310;DHT22;6723;48.256;16.402;2023-04-03T03:29:00;6.00;99.90
13310;DHT22;6723;48.256;16.402;2023-04-03T03:31:25;6.00;99.90
13310;DHT22;6723;48.256;16.402;2023-04-03T03:33:51;6.00;99.90
13310;DHT22;6723;48.256;16.402;2023-04-03T03:36:17;5.90;99.90
13310;DHT22;6723;48.256;16.402;2023-04-03T03:38:43;5.90;99.90
13310;DHT22;6723;48.256;16.402;2023-04-03T03:41:08;5.90;99.90
13310;DHT22;6723;48.256;16.402;2023-04-03T03:43:34;6.00;99.90
13310;DHT22;6723;48.256;16.402;2023-04-03T03:46:00;6.00;99.90
13310;DHT22;6723;48.256;16.402;2023-04-03T03:48:26;5.90;99.90
13310;DHT22;6723;48.256;16.402;2023-04-03T03:50:52;5.90;99.90
13310;DHT22;6723;48.256;16.402;2023-04-03T03:53:18;5.80;99.90
13310;DHT22;6723;48.256;16.402;2023-04-03T03:55:44;5.90;99.90
13310;DHT22;6723;48.256;16.402;2023-04-03T03:58:10;5.90;99.90
13310;DHT22;6723;48.256;16.402;2023-04-03T04:00:36;5.90;99.90
13310;DHT22;6723;48.256;16.402;2023-04-03T04:03:01;5.90;99.90
13310;DHT22;6723;48.256;16.402;2023-04-03T04:05:27;5.90;99.90
13310;DHT22;6723;48.256;16.402;2023-04-03T04:07:53;5.90;99.90
13310;DHT22;6723;48.256;16.402;2023-04-03T04:10:18;5.80;99.90
13310;DHT22;6723;48.256;16.402;2023-04-03T04:12:44;5.80;99.90
13310;DHT22;6723;48.256;16.402;2023-04-03T04:15:10;5.80;99.90
13310;DHT22;6723;48.256;16.402;2023-04-03T04:17:36;5.80;99.90
13310;DHT22;6723;48.256;16.402;2023-04-03T04:20:03;5.80;99.90
13310;DHT22;6723;48.256;16.402;2023-04-03T04:22:30;5.80;99.90
13310;DHT22;6723;48.256;16.402;2023-04-03T04:24:56;5.80;99.90
13310;DHT22;6723;48.256;16.402;2023-04-03T04:27:22;5.70;99.90
13310;DHT22;6723;48.256;16.402;2023-04-03T04:29:47;5.80;99.90
13310;DHT22;6723;48.256;16.402;2023-04-03T04:32:13;5.80;99.90
13310;DHT22;6723;48.256;16.402;2023-04-03T04:34:39;5.70;99.90
13310;DHT22;6723;48.256;16.402;2023-04-03T04:37:05;5.80;99.90
13310;DHT22;6723;48.256;16.402;2023-04-03T04:39:31;5.70;99.90
13310;DHT22;6723;48.256;16.402;2023-04-03T04:41:59;5.70;99.90
13310;DHT22;6723;48.256;16.402;2023-04-03T04:44:24;5.70;99.90
13310;DHT22;6723;48.256;16.402;2023-04-03T04:46:50;5.70;99.90
13310;DHT22;6723;48.256;16.402;2023-04-03T04:49:16;5.70;99.90
13310;DHT22;6723;48.256;16.402;2023-04-03T04:51:42;5.70;99.90
13310;DHT22;6723;48.256;16.402;2023-04-03T04:54:07;5.70;99.90
13310;DHT22;6723;48.256;16.402;2023-04-03T04:56:33;5.70;99.90
13310;DHT22;6723;48.256;16.402;2023-04-03T04:58:59;5.70;99.90
13310;DHT22;6723;48.256;16.402;2023-04-03T05:01:25;5.80;99.90
13310;DHT22;6723;48.256;16.402;2023-04-03T05:03:52;5.80;99.90
13310;DHT22;6723;48.256;16.402;2023-04-03T05:06:17;5.80;99.90
13310;DHT22;6723;48.256;16.402;2023-04-03T05:08:43;5.70;99.90
13310;DHT22;6723;48.256;16.402;2023-04-03T05:11:09;5.70;99.90
13310;DHT22;6723;48.256;16.402;2023-04-03T05:13:35;5.70;99.90
13310;DHT22;6723;48.256;16.402;2023-04-03T05:16:00;5.60;99.90
13310;DHT22;6723;48.256;16.402;2023-04-03T05:18:26;5.70;99.90
13310;DHT22;6723;48.256;16.402;2023-04-03T05:20:52;5.80;99.90
13310;DHT22;6723;48.256;16.402;2023-04-03T05:23:18;5.80;99.90
13310;DHT22;6723;48.256;16.402;2023-04-03T05:25:45;5.80;99.90
13310;DHT22;6723;48.256;16.402;2023-04-03T05:28:13;5.70;99.90
13310;DHT22;6723;48.256;16.402;2023-04-03T05:30:38;5.80;99.90
13310;DHT22;6723;48.256;16.402;2023-04-03T05:33:04;5.90;99.90
13310;DHT22;6723;48.256;16.402;2023-04-03T05:35:31;5.90;99.90
13310;DHT22;6723;48.256;16.402;2023-04-03T05:37:58;6.00;99.90
13310;DHT22;6723;48.256;16.402;2023-04-03T05:40:23;6.00;99.90
13310;DHT22;6723;48.256;16.402;2023-04-03T05:42:49;6.10;99.90
13310;DHT22;6723;48.256;16.402;2023-04-03T05:45:15;6.00;99.90
13310;DHT22;6723;48.256;16.402;2023-04-03T05:47:41;6.10;99.90
13310;DHT22;6723;48.256;16.402;2023-04-03T05:50:07;6.20;99.90
13310;DHT22;6723;48.256;16.402;2023-04-03T05:52:38;6.30;99.90
13310;DHT22;6723;48.256;16.402;2023-04-03T05:55:05;6.30;99.90
13310;DHT22;6723;48.256;16.402;2023-04-03T05:57:31;6.20;99.90
13310;DHT22;6723;48.256;16.402;2023-04-03T05:59:57;6.10;99.90
13310;DHT22;6723;48.256;16.402;2023-04-03T06:02:24;6.10;99.80
13310;DHT22;6723;48.256;16.402;2023-04-03T06:04:51;6.10;99.40
13310;DHT22;6723;48.256;16.402;2023-04-03T06:07:23;6.00;99.50
13310;DHT22;6723;48.256;16.402;2023-04-03T06:09:52;6.10;99.70
13310;DHT22;6723;48.256;16.402;2023-04-03T06:12:19;6.10;99.60
13310;DHT22;6723;48.256;16.402;2023-04-03T06:14:45;6.20;99.80
13310;DHT22;6723;48.256;16.402;2023-04-03T06:17:11;6.10;99.80
13310;DHT22;6723;48.256;16.402;2023-04-03T06:19:37;6.10;99.70
13310;DHT22;6723;48.256;16.402;2023-04-03T06:22:03;6.10;99.40
13310;DHT22;6723;48.256;16.402;2023-04-03T06:24:29;6.10;99.40
13310;DHT22;6723;48.256;16.402;2023-04-03T06:26:56;6.10;99.10
13310;DHT22;6723;48.256;16.402;2023-04-03T06:29:23;6.10;99.10
13310;DHT22;6723;48.256;16.402;2023-04-03T06:31:50;6.10;98.60
13310;DHT22;6723;48.256;16.402;2023-04-03T06:34:16;6.00;98.50
13310;DHT22;6723;48.256;16.402;2023-04-03T06:36:44;6.00;98.50
13310;DHT22;6723;48.256;16.402;2023-04-03T06:39:16;6.10;98.50
13310;DHT22;6723;48.256;16.402;2023-04-03T06:41:42;6.10;98.40
13310;DHT22;6723;48.256;16.402;2023-04-03T06:44:09;6.10;98.40
13310;DHT22;6723;48.256;16.402;2023-04-03T06:46:37;6.20;98.50
13310;DHT22;6723;48.256;16.402;2023-04-03T06:49:03;6.10;98.30
13310;DHT22;6723;48.256;16.402;2023-04-03T06:51:30;6.10;98.60
13310;DHT22;6723;48.256;16.402;2023-04-03T06:53:58;6.20;98.60
13310;DHT22;6723;48.256;16.402;2023-04-03T06:56:25;6.10;98.40
13310;DHT22;6723;48.256;16.402;2023-04-03T06:58:52;6.10;98.50
13310;DHT22;6723;48.256;16.402;2023-04-03T07:01:24;6.00;98.40
13310;DHT22;6723;48.256;16.402;2023-04-03T07:03:51;6.00;98.40
13310;DHT22;6723;48.256;16.402;2023-04-03T07:06:20;6.10;98.40
13310;DHT22;6723;48.256;16.402;2023-04-03T07:08:46;6.10;98.30
13310;DHT22;6723;48.256;16.402;2023-04-03T07:11:13;6.10;98.30
13310;DHT22;6723;48.256;16.402;2023-04-03T07:13:40;6.10;98.20
13310;DHT22;6723;48.256;16.402;2023-04-03T07:16:07;6.20;98.50
13310;DHT22;6723;48.256;16.402;2023-04-03T07:18:34;6.10;98.30
13310;DHT22;6723;48.256;16.402;2023-04-03T07:21:01;6.30;98.20
13310;DHT22;6723;48.256;16.402;2023-04-03T07:23:27;6.20;97.70
13310;DHT22;6723;48.256;16.402;2023-04-03T07:25:53;6.30;97.70
13310;DHT22;6723;48.256;16.402;2023-04-03T07:28:21;6.50;97.80
13310;DHT22;6723;48.256;16.402;2023-04-03T07:31:05;6.90;97.60
13310;DHT22;6723;48.256;16.402;2023-04-03T07:33:34;7.10;97.00
13310;DHT22;6723;48.256;16.402;2023-04-03T07:36:01;7.40;97.40
13310;DHT22;6723;48.256;16.402;2023-04-03T07:38:27;8.00;97.30
13310;DHT22;6723;48.256;16.402;2023-04-03T07:40:53;8.40;95.70
13310;DHT22;6723;48.256;16.402;2023-04-03T07:43:20;8.50;94.80
13310;DHT22;6723;48.256;16.402;2023-04-03T07:45:47;8.60;94.30
13310;DHT22;6723;48.256;16.402;2023-04-03T07:48:17;9.20;93.70
13310;DHT22;6723;48.256;16.402;2023-04-03T07:50:44;10.20;93.00
13310;DHT22;6723;48.256;16.402;2023-04-03T07:53:10;10.40;91.40
13310;DHT22;6723;48.256;16.402;2023-04-03T07:55:37;10.70;90.50
13310;DHT22;6723;48.256;16.402;2023-04-03T07:58:14;10.90;90.00
13310;DHT22;6723;48.256;16.402;2023-04-03T08:00:41;11.00;87.90
13310;DHT22;6723;48.256;16.402;2023-04-03T08:03:08;11.10;87.20
13310;DHT22;6723;48.256;16.402;2023-04-03T08:05:40;11.40;87.30
13310;DHT22;6723;48.256;16.402;2023-04-03T08:08:06;12.00;89.50
13310;DHT22;6723;48.256;16.402;2023-04-03T08:10:32;12.30;86.90
13310;DHT22;6723;48.256;16.402;2023-04-03T08:13:00;12.80;84.60
13310;DHT22;6723;48.256;16.402;2023-04-03T08:15:26;13.50;84.40
13310;DHT22;6723;48.256;16.402;2023-04-03T08:17:52;13.30;80.70
13310;DHT22;6723;48.256;16.402;2023-04-03T08:20:18;13.30;79.80
13310;DHT22;6723;48.256;16.402;2023-04-03T08:22:44;13.10;80.40
13310;DHT22;6723;48.256;16.402;2023-04-03T08:25:10;13.50;79.40
13310;DHT22;6723;48.256;16.402;2023-04-03T08:27:36;13.70;78.00
13310;DHT22;6723;48.256;16.402;2023-04-03T08:30:03;13.30;77.60
13310;DHT22;6723;48.256;16.402;2023-04-03T08:32:30;13.00;78.00
13310;DHT22;6723;48.256;16.402;2023-04-03T08:34:56;12.50;78.60
13310;DHT22;6723;48.256;16.402;2023-04-03T08:37:21;12.90;79.20
13310;DHT22;6723;48.256;16.402;2023-04-03T08:39:49;13.70;78.20
13310;DHT22;6723;48.256;16.402;2023-04-03T08:42:26;13.70;76.30
13310;DHT22;6723;48.256;16.402;2023-04-03T08:45:01;13.00;75.80
13310;DHT22;6723;48.256;16.402;2023-04-03T08:47:55;12.30;75.20
13310;DHT22;6723;48.256;16.402;2023-04-03T08:50:34;12.20;74.60
13310;DHT22;6723;48.256;16.402;2023-04-03T08:53:02;11.50;75.30
13310;DHT22;6723;48.256;16.402;2023-04-03T08:55:41;11.20;76.20
13310;DHT22;6723;48.256;16.402;2023-04-03T08:58:17;11.20;76.20
13310;DHT22;6723;48.256;16.402;2023-04-03T09:01:16;10.80;77.70
13310;DHT22;6723;48.256;16.402;2023-04-03T09:03:43;10.40;78.20
13310;DHT22;6723;48.256;16.402;2023-04-03T09:06:25;10.20;77.90
13310;DHT22;6723;48.256;16.402;2023-04-03T09:14:38;9.70;78.80
13310;DHT22;6723;48.256;16.402;2023-04-03T09:20:26;9.50;80.20
13310;DHT22;6723;48.256;16.402;2023-04-03T09:22:55;9.20;79.90
13310;DHT22;6723;48.256;16.402;2023-04-03T09:25:23;9.20;79.70
13310;DHT22;6723;48.256;16.402;2023-04-03T09:27:51;8.90;80.20
13310;DHT22;6723;48.256;16.402;2023-04-03T09:30:21;8.90;80.80
13310;DHT22;6723;48.256;16.402;2023-04-03T09:32:52;8.80;81.00
13310;DHT22;6723;48.256;16.402;2023-04-03T09:35:28;9.20;81.60
13310;DHT22;6723;48.256;16.402;2023-04-03T09:40:37;9.00;81.40
13310;DHT22;6723;48.256;16.402;2023-04-03T09:45:50;8.90;83.10
13310;DHT22;6723;48.256;16.402;2023-04-03T09:48:18;8.60;81.10
13310;DHT22;6723;48.256;16.402;2023-04-03T09:53:37;8.30;79.00
13310;DHT22;6723;48.256;16.402;2023-04-03T09:56:27;8.00;77.90
13310;DHT22;6723;48.256;16.402;2023-04-03T10:01:36;7.80;78.50
13310;DHT22;6723;48.256;16.402;2023-04-03T10:09:28;7.90;79.70
13310;DHT22;6723;48.256;16.402;2023-04-03T10:12:00;7.80;79.70
13310;DHT22;6723;48.256;16.402;2023-04-03T10:14:41;7.90;80.20
13310;DHT22;6723;48.256;16.402;2023-04-03T10:23:02;8.10;79.10
13310;DHT22;6723;48.256;16.402;2023-04-03T10:28:34;8.60;79.30
13310;DHT22;6723;48.256;16.402;2023-04-03T10:31:10;8.90;78.40
13310;DHT22;6723;48.256;16.402;2023-04-03T10:36:31;9.00;76.20
13310;DHT22;6723;48.256;16.402;2023-04-03T10:39:32;9.10;76.20
13310;DHT22;6723;48.256;16.402;2023-04-03T10:50:28;10.20;70.00
13310;DHT22;6723;48.256;16.402;2023-04-03T10:52:57;9.80;70.00
13310;DHT22;6723;48.256;16.402;2023-04-03T10:57:59;9.20;70.80
13310;DHT22;6723;48.256;16.402;2023-04-03T11:00:44;9.10;70.20
13310;DHT22;6723;48.256;16.402;2023-04-03T11:03:32;9.30;71.40
13310;DHT22;6723;48.256;16.402;2023-04-03T11:06:05;9.30;72.70
13310;DHT22;6723;48.256;16.402;2023-04-03T11:11:16;8.90;73.80
13310;DHT22;6723;48.256;16.402;2023-04-03T11:14:37;8.80;74.40
13310;DHT22;6723;48.256;16.402;2023-04-03T11:17:15;8.60;73.80
13310;DHT22;6723;48.256;16.402;2023-04-03T11:22:42;8.50;74.70
13310;DHT22;6723;48.256;16.402;2023-04-03T11:28:13;8.40;74.30
13310;DHT22;6723;48.256;16.402;2023-04-03T11:31:15;8.30;72.90
13310;DHT22;6723;48.256;16.402;2023-04-03T11:36:53;8.60;71.40
13310;DHT22;6723;48.256;16.402;2023-04-03T11:39:32;8.50;72.10
13310;DHT22;6723;48.256;16.402;2023-04-03T11:42:37;8.60;70.20
13310;DHT22;6723;48.256;16.402;2023-04-03T11:47:56;9.50;68.50
13310;DHT22;6723;48.256;16.402;2023-04-03T11:50:40;9.40;69.70
13310;DHT22;6723;48.256;16.402;2023-04-03T12:00:59;8.80;70.60
13310;DHT22;6723;48.256;16.402;2023-04-03T12:08:26;8.80;71.10
13310;DHT22;6723;48.256;16.402;2023-04-03T12:14:02;8.80;70.30
13310;DHT22;6723;48.256;16.402;2023-04-03T12:16:30;8.80;70.40
13310;DHT22;6723;48.256;16.402;2023-04-03T12:19:04;8.90;70.50
13310;DHT22;6723;48.256;16.402;2023-04-03T12:26:50;9.20;69.00
13310;DHT22;6723;48.256;16.402;2023-04-03T12:29:24;9.00;68.60
13310;DHT22;6723;48.256;16.402;2023-04-03T12:40:37;8.30;68.40
13310;DHT22;6723;48.256;16.402;2023-04-03T12:48:38;8.40;68.30
13310;DHT22;6723;48.256;16.402;2023-04-03T12:51:05;8.70;69.10
13310;DHT22;6723;48.256;16.402;2023-04-03T12:53:34;9.10;69.10
13310;DHT22;6723;48.256;16.402;2023-04-03T12:56:23;9.30;68.60
13310;DHT22;6723;48.256;16.402;2023-04-03T12:58:55;9.40;68.30
13310;DHT22;6723;48.256;16.402;2023-04-03T13:01:24;9.10;67.60
13310;DHT22;6723;48.256;16.402;2023-04-03T13:03:56;9.00;68.20
13310;DHT22;6723;48.256;16.402;2023-04-03T13:06:37;9.00;67.60
13310;DHT22;6723;48.256;16.402;2023-04-03T13:09:04;8.70;67.30
13310;DHT22;6723;48.256;16.402;2023-04-03T13:11:36;8.90;69.50
13310;DHT22;6723;48.256;16.402;2023-04-03T13:14:13;9.00;68.30
13310;DHT22;6723;48.256;16.402;2023-04-03T13:16:40;9.00;66.80
13310;DHT22;6723;48.256;16.402;2023-04-03T13:19:16;8.80;66.70
13310;DHT22;6723;48.256;16.402;2023-04-03T13:21:43;8.80;66.80
13310;DHT22;6723;48.256;16.402;2023-04-03T13:24:11;8.80;67.30
13310;DHT22;6723;48.256;16.402;2023-04-03T13:26:38;8.70;67.10
13310;DHT22;6723;48.256;16.402;2023-04-03T13:29:06;8.60;67.60
13310;DHT22;6723;48.256;16.402;2023-04-03T13:31:36;8.60;68.20
13310;DHT22;6723;48.256;16.402;2023-04-03T13:34:13;8.60;68.40
13310;DHT22;6723;48.256;16.402;2023-04-03T13:41:50;8.70;67.40
13310;DHT22;6723;48.256;16.402;2023-04-03T13:47:21;8.40;67.90
13310;DHT22;6723;48.256;16.402;2023-04-03T13:53:24;8.00;68.20
13310;DHT22;6723;48.256;16.402;2023-04-03T13:55:33;8.20;68.60
13310;DHT22;6723;48.256;16.402;2023-04-03T14:00:38;8.20;67.30
13310;DHT22;6723;48.256;16.402;2023-04-03T14:03:45;8.10;67.90
13310;DHT22;6723;48.256;16.402;2023-04-03T14:06:15;8.30;68.00
13310;DHT22;6723;48.256;16.402;2023-04-03T14:08:41;8.10;67.40
13310;DHT22;6723;48.256;16.402;2023-04-03T14:11:16;8.30;68.10
13310;DHT22;6723;48.256;16.402;2023-04-03T14:13:44;8.50;68.10
13310;DHT22;6723;48.256;16.402;2023-04-03T14:16:15;8.50;67.10
13310;DHT22;6723;48.256;16.402;2023-04-03T14:18:44;8.60;67.20
13310;DHT22;6723;48.256;16.402;2023-04-03T14:21:16;8.50;67.00
13310;DHT22;6723;48.256;16.402;2023-04-03T14:23:42;8.70;67.50
13310;DHT22;6723;48.256;16.402;2023-04-03T14:26:19;8.90;67.90
13310;DHT22;6723;48.256;16.402;2023-04-03T14:28:48;9.10;67.70
13310;DHT22;6723;48.256;16.402;2023-04-03T14:31:16;9.10;67.20
13310;DHT22;6723;48.256;16.402;2023-04-03T14:33:44;9.20;68.00
13310;DHT22;6723;48.256;16.402;2023-04-03T14:36:30;9.00;67.90
13310;DHT22;6723;48.256;16.402;2023-04-03T14:38:58;8.90;67.30
13310;DHT22;6723;48.256;16.402;2023-04-03T14:41:25;8.70;66.80
13310;DHT22;6723;48.256;16.402;2023-04-03T14:43:52;8.80;67.00
13310;DHT22;6723;48.256;16.402;2023-04-03T14:48:53;8.80;65.40
13310;DHT22;6723;48.256;16.402;2023-04-03T14:51:19;8.80;65.80
13310;DHT22;6723;48.256;16.402;2023-04-03T14:53:44;8.80;66.40
13310;DHT22;6723;48.256;16.402;2023-04-03T14:56:19;8.60;66.20
13310;DHT22;6723;48.256;16.402;2023-04-03T14:58:55;8.30;66.90
13310;DHT22;6723;48.256;16.402;2023-04-03T15:01:22;8.30;66.90
13310;DHT22;6723;48.256;16.402;2023-04-03T15:03:48;8.20;66.10
13310;DHT22;6723;48.256;16.402;2023-04-03T15:06:14;8.50;66.60
13310;DHT22;6723;48.256;16.402;2023-04-03T15:08:41;8.50;66.10
13310;DHT22;6723;48.256;16.402;2023-04-03T15:11:10;8.60;66.60
13310;DHT22;6723;48.256;16.402;2023-04-03T15:13:37;8.70;66.70
13310;DHT22;6723;48.256;16.402;2023-04-03T15:16:05;8.60;66.40
13310;DHT22;6723;48.256;16.402;2023-04-03T15:18:37;8.40;66.00
13310;DHT22;6723;48.256;16.402;2023-04-03T15:21:04;8.20;66.60
13310;DHT22;6723;48.256;16.402;2023-04-03T15:23:30;8.10;66.70
13310;DHT22;6723;48.256;16.402;2023-04-03T15:25:57;8.10;66.70
13310;DHT22;6723;48.256;16.402;2023-04-03T15:30:52;7.80;67.70
13310;DHT22;6723;48.256;16.402;2023-04-03T15:33:18;7.60;68.80
13310;DHT22;6723;48.256;16.402;2023-04-03T15:35:44;7.50;68.00
13310;DHT22;6723;48.256;16.402;2023-04-03T15:38:10;7.40;68.10
13310;DHT22;6723;48.256;16.402;2023-04-03T15:40:36;7.40;68.50
13310;DHT22;6723;48.256;16.402;2023-04-03T15:43:03;7.30;68.00
13310;DHT22;6723;48.256;16.402;2023-04-03T15:45:29;7.20;68.10
13310;DHT22;6723;48.256;16.402;2023-04-03T15:47:56;7.30;68.10
13310;DHT22;6723;48.256;16.402;2023-04-03T15:50:22;7.50;68.50
13310;DHT22;6723;48.256;16.402;2023-04-03T15:52:50;7.50;68.20
13310;DHT22;6723;48.256;16.402;2023-04-03T15:55:25;7.40;67.90
13310;DHT22;6723;48.256;16.402;2023-04-03T15:57:52;7.30;67.90
13310;DHT22;6723;48.256;16.402;2023-04-03T16:00:19;7.10;67.90
13310;DHT22;6723;48.256;16.402;2023-04-03T16:02:47;7.10;68.20
13310;DHT22;6723;48.256;16.402;2023-04-03T16:05:14;7.00;68.40
13310;DHT22;6723;48.256;16.402;2023-04-03T16:07:43;7.00;67.90
13310;DHT22;6723;48.256;16.402;2023-04-03T16:10:13;6.90;67.90
13310;DHT22;6723;48.256;16.402;2023-04-03T16:12:39;7.00;68.20
13310;DHT22;6723;48.256;16.402;2023-04-03T16:15:06;7.10;68.00
13310;DHT22;6723;48.256;16.402;2023-04-03T16:17:33;7.00;67.90
13310;DHT22;6723;48.256;16.402;2023-04-03T16:20:00;7.00;67.20
13310;DHT22;6723;48.256;16.402;2023-04-03T16:22:27;6.80;67.10
13310;DHT22;6723;48.256;16.402;2023-04-03T16:24:53;6.70;67.50
13310;DHT22;6723;48.256;16.402;2023-04-03T16:27:20;6.60;68.10
13310;DHT22;6723;48.256;16.402;2023-04-03T16:29:46;6.50;68.30
13310;DHT22;6723;48.256;16.402;2023-04-03T16:32:13;6.50;68.30
13310;DHT22;6723;48.256;16.402;2023-04-03T16:34:39;6.50;68.80
13310;DHT22;6723;48.256;16.402;2023-04-03T16:37:06;6.50;69.40
13310;DHT22;6723;48.256;16.402;2023-04-03T16:39:35;6.30;69.40
13310;DHT22;6723;48.256;16.402;2023-04-03T16:42:00;6.30;70.00
13310;DHT22;6723;48.256;16.402;2023-04-03T16:44:27;6.30;70.00
13310;DHT22;6723;48.256;16.402;2023-04-03T16:46:52;6.30;70.00
13310;DHT22;6723;48.256;16.402;2023-04-03T16:49:18;6.20;69.90
13310;DHT22;6723;48.256;16.402;2023-04-03T16:51:44;6.20;70.00
13310;DHT22;6723;48.256;16.402;2023-04-03T16:54:11;6.10;70.20
13310;DHT22;6723;48.256;16.402;2023-04-03T16:56:39;6.00;70.40
13310;DHT22;6723;48.256;16.402;2023-04-03T16:59:05;6.10;70.60
13310;DHT22;6723;48.256;16.402;2023-04-03T17:01:31;6.00;69.60
13310;DHT22;6723;48.256;16.402;2023-04-03T17:03:57;6.00;69.40
13310;DHT22;6723;48.256;16.402;2023-04-03T17:06:23;6.00;69.60
13310;DHT22;6723;48.256;16.402;2023-04-03T17:08:52;6.00;70.60
13310;DHT22;6723;48.256;16.402;2023-04-03T17:11:19;6.00;70.90
13310;DHT22;6723;48.256;16.402;2023-04-03T17:13:46;6.00;70.10
13310;DHT22;6723;48.256;16.402;2023-04-03T17:16:14;5.90;70.50
13310;DHT22;6723;48.256;16.402;2023-04-03T17:18:41;5.80;70.70
13310;DHT22;6723;48.256;16.402;2023-04-03T17:21:07;5.80;71.30
13310;DHT22;6723;48.256;16.402;2023-04-03T17:23:35;5.80;71.50
13310;DHT22;6723;48.256;16.402;2023-04-03T17:26:03;5.80;72.00
13310;DHT22;6723;48.256;16.402;2023-04-03T17:28:29;5.80;71.00
13310;DHT22;6723;48.256;16.402;2023-04-03T17:30:58;5.80;70.90
13310;DHT22;6723;48.256;16.402;2023-04-03T17:33:26;5.70;70.80
13310;DHT22;6723;48.256;16.402;2023-04-03T17:35:56;5.80;70.70
13310;DHT22;6723;48.256;16.402;2023-04-03T17:38:22;5.70;70.40
13310;DHT22;6723;48.256;16.402;2023-04-03T17:40:49;5.60;70.30
13310;DHT22;6723;48.256;16.402;2023-04-03T17:43:15;5.60;70.70
13310;DHT22;6723;48.256;16.402;2023-04-03T17:45:41;5.60;71.10
13310;DHT22;6723;48.256;16.402;2023-04-03T17:48:07;5.50;71.10
13310;DHT22;6723;48.256;16.402;2023-04-03T17:50:33;5.50;71.00
13310;DHT22;6723;48.256;16.402;2023-04-03T17:52:58;5.40;71.50
13310;DHT22;6723;48.256;16.402;2023-04-03T17:55:24;5.30;71.70